Fernie, Canada
Current Conditions -  °F | °C
As of 11:45 AM on Thursday 23 Oct 2014 (Local Time) from CYXC Reporting Station
Rain Showers Rain Showers  
Wind Chill: 54°   Ceiling: 5000
Heat Index: 54°   Visibility: 25mi
Dew Point: 43°   Wind: 15mph
Humidity: 67%   Direction: 190°S
Pressure: 29.72"   Gusts: 22mph
Location:  49.51°N, 115.06°W
Report Text: CYXC 231745Z 19013G19KT 25SM -SHRA BKN050 BKN100 12/06 A2972 RMK SC6AC1 CVCTV CLD EMBD SLP071 DENSITY ALT 3600FT
Loading
Personal Weather Stations






























Interactive Weather Map
Tropical Storm Tracking
New forecast layout! Learn more

10-Day Weather Forecast

Advertisements
Track Severe Weather on mobile